Terminal Aerodrome Forecast
Issued by NWS San Angelo, TX

Home | Current Version | Previous Version | Text Only | Print | Product List | Glossary On
Versions: 1 2 3 4 5 6 7 8 9 10 11 12 13 14 15 16 17 18 19 20
467
FTUS44 KSJT 292334
TAFSJT
TAF
KSJT 292334Z 3000/3024 32022G32KT P6SM OVC070
     FM300100 33025G35KT P6SM VCSH SCT060 OVC100
     FM300500 31019G28KT P6SM SCT060
     FM301500 29017G27KT P6SM SKC=

USA.gov is the U.S. government's official web portal to all federal, state and local government web resources and services.